sensor_id;sensor_type;location;lat;lon;timestamp;P1;durP1;ratioP1;P2;durP2;ratioP2
42726;SDS011;28372;56.832;60.658;2023-07-29T00:00:00;7.25;;;3.35;;
42726;SDS011;28372;56.832;60.658;2023-07-29T00:02:38;6.93;;;3.20;;
42726;SDS011;28372;56.832;60.658;2023-07-29T00:05:06;7.60;;;3.58;;
42726;SDS011;28372;56.832;60.658;2023-07-29T00:07:34;6.07;;;3.05;;
42726;SDS011;28372;56.832;60.658;2023-07-29T00:10:02;7.43;;;3.40;;
42726;SDS011;28372;56.832;60.658;2023-07-29T00:12:30;7.05;;;2.88;;
42726;SDS011;28372;56.832;60.658;2023-07-29T00:14:58;6.85;;;3.20;;
42726;SDS011;28372;56.832;60.658;2023-07-29T00:17:26;6.53;;;3.30;;
42726;SDS011;28372;56.832;60.658;2023-07-29T00:19:53;5.95;;;3.10;;
42726;SDS011;28372;56.832;60.658;2023-07-29T00:22:21;7.97;;;3.20;;
42726;SDS011;28372;56.832;60.658;2023-07-29T00:24:52;8.00;;;3.08;;
42726;SDS011;28372;56.832;60.658;2023-07-29T00:27:22;5.97;;;3.20;;
42726;SDS011;28372;56.832;60.658;2023-07-29T00:29:50;8.85;;;3.25;;
42726;SDS011;28372;56.832;60.658;2023-07-29T00:32:17;5.40;;;3.13;;
42726;SDS011;28372;56.832;60.658;2023-07-29T00:34:45;7.88;;;3.60;;
42726;SDS011;28372;56.832;60.658;2023-07-29T00:37:13;7.55;;;3.30;;
42726;SDS011;28372;56.832;60.658;2023-07-29T00:39:41;6.65;;;3.33;;
42726;SDS011;28372;56.832;60.658;2023-07-29T00:42:08;7.55;;;3.47;;
42726;SDS011;28372;56.832;60.658;2023-07-29T00:44:37;9.75;;;3.42;;
42726;SDS011;28372;56.832;60.658;2023-07-29T00:47:04;7.97;;;3.47;;
42726;SDS011;28372;56.832;60.658;2023-07-29T00:49:34;7.18;;;3.42;;
42726;SDS011;28372;56.832;60.658;2023-07-29T00:52:02;8.80;;;3.50;;
42726;SDS011;28372;56.832;60.658;2023-07-29T00:54:30;7.10;;;3.65;;
42726;SDS011;28372;56.832;60.658;2023-07-29T00:56:57;8.43;;;3.40;;
42726;SDS011;28372;56.832;60.658;2023-07-29T00:59:25;8.15;;;3.28;;
42726;SDS011;28372;56.832;60.658;2023-07-29T01:01:55;8.07;;;3.70;;
42726;SDS011;28372;56.832;60.658;2023-07-29T01:04:23;8.52;;;3.40;;
42726;SDS011;28372;56.832;60.658;2023-07-29T01:20:58;9.05;;;3.50;;
42726;SDS011;28372;56.832;60.658;2023-07-29T01:23:30;7.90;;;3.90;;
42726;SDS011;28372;56.832;60.658;2023-07-29T01:25:59;8.73;;;3.67;;
42726;SDS011;28372;56.832;60.658;2023-07-29T01:28:28;11.05;;;3.63;;
42726;SDS011;28372;56.832;60.658;2023-07-29T01:31:16;11.63;;;3.63;;
42726;SDS011;28372;56.832;60.658;2023-07-29T01:34:05;6.88;;;3.35;;
42726;SDS011;28372;56.832;60.658;2023-07-29T01:36:39;8.68;;;3.80;;
42726;SDS011;28372;56.832;60.658;2023-07-29T01:39:14;10.85;;;3.90;;
42726;SDS011;28372;56.832;60.658;2023-07-29T01:41:44;6.82;;;3.60;;
42726;SDS011;28372;56.832;60.658;2023-07-29T01:44:12;7.63;;;3.40;;
42726;SDS011;28372;56.832;60.658;2023-07-29T01:46:41;9.45;;;3.78;;
42726;SDS011;28372;56.832;60.658;2023-07-29T01:49:11;8.13;;;3.28;;
42726;SDS011;28372;56.832;60.658;2023-07-29T01:51:39;10.23;;;3.67;;
42726;SDS011;28372;56.832;60.658;2023-07-29T01:54:07;9.75;;;3.58;;
42726;SDS011;28372;56.832;60.658;2023-07-29T01:56:35;9.55;;;3.40;;
42726;SDS011;28372;56.832;60.658;2023-07-29T01:59:04;8.80;;;3.67;;
42726;SDS011;28372;56.832;60.658;2023-07-29T02:01:32;7.47;;;3.20;;
42726;SDS011;28372;56.832;60.658;2023-07-29T02:04:00;10.13;;;3.20;;
42726;SDS011;28372;56.832;60.658;2023-07-29T02:06:27;6.82;;;3.28;;
42726;SDS011;28372;56.832;60.658;2023-07-29T02:08:55;8.45;;;3.20;;
42726;SDS011;28372;56.832;60.658;2023-07-29T02:11:23;7.35;;;3.20;;
42726;SDS011;28372;56.832;60.658;2023-07-29T02:13:56;5.53;;;2.72;;
42726;SDS011;28372;56.832;60.658;2023-07-29T02:16:26;8.63;;;3.20;;
42726;SDS011;28372;56.832;60.658;2023-07-29T02:18:54;9.43;;;3.40;;
42726;SDS011;28372;56.832;60.658;2023-07-29T02:21:23;7.63;;;3.25;;
42726;SDS011;28372;56.832;60.658;2023-07-29T02:23:51;8.45;;;3.45;;
42726;SDS011;28372;56.832;60.658;2023-07-29T02:26:18;6.82;;;3.25;;
42726;SDS011;28372;56.832;60.658;2023-07-29T02:28:46;10.43;;;3.28;;
42726;SDS011;28372;56.832;60.658;2023-07-29T02:33:47;7.47;;;3.35;;
42726;SDS011;28372;56.832;60.658;2023-07-29T02:36:16;6.97;;;3.80;;
42726;SDS011;28372;56.832;60.658;2023-07-29T02:38:45;5.97;;;3.40;;
42726;SDS011;28372;56.832;60.658;2023-07-29T02:41:13;7.30;;;3.50;;
42726;SDS011;28372;56.832;60.658;2023-07-29T02:43:47;6.60;;;3.38;;
42726;SDS011;28372;56.832;60.658;2023-07-29T02:46:16;6.60;;;3.30;;
42726;SDS011;28372;56.832;60.658;2023-07-29T02:48:44;6.55;;;3.33;;
42726;SDS011;28372;56.832;60.658;2023-07-29T02:51:12;5.63;;;3.30;;
42726;SDS011;28372;56.832;60.658;2023-07-29T02:53:40;9.27;;;3.20;;
42726;SDS011;28372;56.832;60.658;2023-07-29T02:56:08;7.72;;;3.50;;
42726;SDS011;28372;56.832;60.658;2023-07-29T02:58:36;6.57;;;3.40;;
42726;SDS011;28372;56.832;60.658;2023-07-29T03:01:05;7.07;;;3.42;;
42726;SDS011;28372;56.832;60.658;2023-07-29T03:03:33;9.40;;;3.30;;
42726;SDS011;28372;56.832;60.658;2023-07-29T03:06:06;7.75;;;3.17;;
42726;SDS011;28372;56.832;60.658;2023-07-29T03:08:35;7.45;;;3.17;;
42726;SDS011;28372;56.832;60.658;2023-07-29T03:11:07;6.97;;;2.83;;
42726;SDS011;28372;56.832;60.658;2023-07-29T03:13:39;6.20;;;3.10;;
42726;SDS011;28372;56.832;60.658;2023-07-29T03:18:46;7.53;;;3.17;;
42726;SDS011;28372;56.832;60.658;2023-07-29T03:21:15;12.73;;;3.20;;
42726;SDS011;28372;56.832;60.658;2023-07-29T03:23:43;5.43;;;2.90;;
42726;SDS011;28372;56.832;60.658;2023-07-29T03:26:11;6.43;;;2.90;;
42726;SDS011;28372;56.832;60.658;2023-07-29T03:28:40;6.75;;;2.65;;
42726;SDS011;28372;56.832;60.658;2023-07-29T03:31:09;6.13;;;2.72;;
42726;SDS011;28372;56.832;60.658;2023-07-29T03:33:38;6.90;;;2.70;;
42726;SDS011;28372;56.832;60.658;2023-07-29T03:36:06;6.15;;;2.88;;
42726;SDS011;28372;56.832;60.658;2023-07-29T03:38:35;7.30;;;2.70;;
42726;SDS011;28372;56.832;60.658;2023-07-29T03:41:08;6.85;;;2.47;;
42726;SDS011;28372;56.832;60.658;2023-07-29T03:43:36;5.90;;;2.50;;
42726;SDS011;28372;56.832;60.658;2023-07-29T03:46:05;5.47;;;2.47;;
42726;SDS011;28372;56.832;60.658;2023-07-29T03:48:38;5.72;;;2.40;;
42726;SDS011;28372;56.832;60.658;2023-07-29T03:51:07;6.18;;;2.40;;
42726;SDS011;28372;56.832;60.658;2023-07-29T03:53:35;4.88;;;2.30;;
42726;SDS011;28372;56.832;60.658;2023-07-29T03:56:03;7.70;;;2.67;;
42726;SDS011;28372;56.832;60.658;2023-07-29T03:58:31;6.50;;;2.72;;
42726;SDS011;28372;56.832;60.658;2023-07-29T04:00:59;5.97;;;2.50;;
42726;SDS011;28372;56.832;60.658;2023-07-29T04:03:27;6.40;;;2.83;;
42726;SDS011;28372;56.832;60.658;2023-07-29T04:05:55;5.07;;;2.60;;
42726;SDS011;28372;56.832;60.658;2023-07-29T04:08:24;5.88;;;2.88;;
42726;SDS011;28372;56.832;60.658;2023-07-29T04:10:52;4.63;;;2.55;;
42726;SDS011;28372;56.832;60.658;2023-07-29T04:13:24;5.68;;;2.72;;
42726;SDS011;28372;56.832;60.658;2023-07-29T04:15:51;4.47;;;2.60;;
42726;SDS011;28372;56.832;60.658;2023-07-29T04:18:19;5.35;;;2.45;;
42726;SDS011;28372;56.832;60.658;2023-07-29T04:20:48;5.90;;;2.35;;
42726;SDS011;28372;56.832;60.658;2023-07-29T04:23:15;4.78;;;2.45;;
42726;SDS011;28372;56.832;60.658;2023-07-29T04:25:43;4.97;;;2.65;;
42726;SDS011;28372;56.832;60.658;2023-07-29T04:28:11;5.90;;;2.58;;
42726;SDS011;28372;56.832;60.658;2023-07-29T04:30:39;5.72;;;2.58;;
42726;SDS011;28372;56.832;60.658;2023-07-29T04:33:06;7.57;;;2.67;;
42726;SDS011;28372;56.832;60.658;2023-07-29T04:35:36;8.07;;;2.85;;
42726;SDS011;28372;56.832;60.658;2023-07-29T04:38:04;5.28;;;2.50;;
42726;SDS011;28372;56.832;60.658;2023-07-29T04:40:35;5.07;;;2.65;;
42726;SDS011;28372;56.832;60.658;2023-07-29T04:43:02;4.95;;;2.53;;
42726;SDS011;28372;56.832;60.658;2023-07-29T04:45:30;7.88;;;2.50;;
42726;SDS011;28372;56.832;60.658;2023-07-29T04:47:59;3.42;;;2.20;;
42726;SDS011;28372;56.832;60.658;2023-07-29T04:50:27;4.25;;;2.20;;
42726;SDS011;28372;56.832;60.658;2023-07-29T04:52:56;4.07;;;1.92;;
42726;SDS011;28372;56.832;60.658;2023-07-29T04:55:24;3.00;;;2.10;;
42726;SDS011;28372;56.832;60.658;2023-07-29T04:57:52;2.75;;;2.00;;
42726;SDS011;28372;56.832;60.658;2023-07-29T05:00:20;3.28;;;2.30;;
42726;SDS011;28372;56.832;60.658;2023-07-29T05:02:48;3.63;;;2.10;;
42726;SDS011;28372;56.832;60.658;2023-07-29T05:05:16;3.38;;;2.28;;
42726;SDS011;28372;56.832;60.658;2023-07-29T05:07:44;3.90;;;2.20;;
42726;SDS011;28372;56.832;60.658;2023-07-29T05:10:12;4.13;;;2.20;;
42726;SDS011;28372;56.832;60.658;2023-07-29T05:12:40;3.97;;;2.35;;
42726;SDS011;28372;56.832;60.658;2023-07-29T05:15:08;4.78;;;2.17;;
42726;SDS011;28372;56.832;60.658;2023-07-29T05:17:36;3.78;;;2.50;;
42726;SDS011;28372;56.832;60.658;2023-07-29T05:20:04;5.05;;;2.10;;
42726;SDS011;28372;56.832;60.658;2023-07-29T05:22:32;4.07;;;2.40;;
42726;SDS011;28372;56.832;60.658;2023-07-29T05:25:00;4.18;;;2.15;;
42726;SDS011;28372;56.832;60.658;2023-07-29T05:27:29;6.13;;;2.40;;
42726;SDS011;28372;56.832;60.658;2023-07-29T05:29:57;3.83;;;2.22;;
42726;SDS011;28372;56.832;60.658;2023-07-29T05:32:25;4.40;;;2.28;;
42726;SDS011;28372;56.832;60.658;2023-07-29T05:34:54;6.45;;;2.63;;
42726;SDS011;28372;56.832;60.658;2023-07-29T05:37:22;5.40;;;2.30;;
42726;SDS011;28372;56.832;60.658;2023-07-29T05:39:50;3.05;;;2.10;;
42726;SDS011;28372;56.832;60.658;2023-07-29T05:42:18;4.85;;;2.40;;
42726;SDS011;28372;56.832;60.658;2023-07-29T05:44:46;3.33;;;2.38;;
42726;SDS011;28372;56.832;60.658;2023-07-29T05:47:14;4.50;;;2.20;;
42726;SDS011;28372;56.832;60.658;2023-07-29T05:49:42;4.75;;;2.70;;
42726;SDS011;28372;56.832;60.658;2023-07-29T05:52:09;4.40;;;2.65;;
42726;SDS011;28372;56.832;60.658;2023-07-29T05:54:37;4.40;;;2.65;;
42726;SDS011;28372;56.832;60.658;2023-07-29T05:57:05;4.43;;;2.70;;
42726;SDS011;28372;56.832;60.658;2023-07-29T05:59:33;3.97;;;2.58;;
42726;SDS011;28372;56.832;60.658;2023-07-29T06:02:01;5.57;;;2.70;;
42726;SDS011;28372;56.832;60.658;2023-07-29T06:04:42;6.53;;;2.60;;
42726;SDS011;28372;56.832;60.658;2023-07-29T06:07:10;4.82;;;2.72;;
42726;SDS011;28372;56.832;60.658;2023-07-29T06:09:39;6.57;;;2.80;;
42726;SDS011;28372;56.832;60.658;2023-07-29T06:12:08;6.07;;;2.70;;
42726;SDS011;28372;56.832;60.658;2023-07-29T06:14:36;4.88;;;2.50;;
42726;SDS011;28372;56.832;60.658;2023-07-29T06:17:15;5.68;;;2.60;;
42726;SDS011;28372;56.832;60.658;2023-07-29T06:19:43;4.68;;;2.53;;
42726;SDS011;28372;56.832;60.658;2023-07-29T06:22:11;5.93;;;2.75;;
42726;SDS011;28372;56.832;60.658;2023-07-29T06:24:38;4.70;;;3.22;;
42726;SDS011;28372;56.832;60.658;2023-07-29T06:27:06;4.13;;;2.65;;
42726;SDS011;28372;56.832;60.658;2023-07-29T06:29:34;4.72;;;2.72;;
42726;SDS011;28372;56.832;60.658;2023-07-29T06:32:02;7.45;;;3.15;;
42726;SDS011;28372;56.832;60.658;2023-07-29T06:34:30;4.22;;;2.80;;
42726;SDS011;28372;56.832;60.658;2023-07-29T06:36:58;6.03;;;3.20;;
42726;SDS011;28372;56.832;60.658;2023-07-29T06:39:25;5.05;;;3.13;;
42726;SDS011;28372;56.832;60.658;2023-07-29T06:41:53;5.82;;;3.28;;
42726;SDS011;28372;56.832;60.658;2023-07-29T06:44:21;5.30;;;3.03;;
42726;SDS011;28372;56.832;60.658;2023-07-29T06:46:50;5.28;;;3.15;;
42726;SDS011;28372;56.832;60.658;2023-07-29T06:49:18;4.95;;;3.53;;
42726;SDS011;28372;56.832;60.658;2023-07-29T06:51:46;6.35;;;4.68;;
42726;SDS011;28372;56.832;60.658;2023-07-29T06:54:15;7.63;;;3.88;;
42726;SDS011;28372;56.832;60.658;2023-07-29T06:56:43;5.75;;;3.72;;
42726;SDS011;28372;56.832;60.658;2023-07-29T06:59:11;6.22;;;3.65;;
42726;SDS011;28372;56.832;60.658;2023-07-29T07:01:38;7.03;;;3.90;;
42726;SDS011;28372;56.832;60.658;2023-07-29T07:04:06;8.13;;;3.80;;
42726;SDS011;28372;56.832;60.658;2023-07-29T07:06:34;6.25;;;3.90;;
42726;SDS011;28372;56.832;60.658;2023-07-29T07:09:02;8.07;;;5.25;;
42726;SDS011;28372;56.832;60.658;2023-07-29T07:11:30;6.78;;;4.50;;
42726;SDS011;28372;56.832;60.658;2023-07-29T07:13:58;7.65;;;4.60;;
42726;SDS011;28372;56.832;60.658;2023-07-29T07:16:26;6.82;;;4.70;;
42726;SDS011;28372;56.832;60.658;2023-07-29T07:18:56;7.05;;;4.50;;
42726;SDS011;28372;56.832;60.658;2023-07-29T07:21:24;6.85;;;4.65;;
42726;SDS011;28372;56.832;60.658;2023-07-29T07:23:52;6.05;;;4.53;;
42726;SDS011;28372;56.832;60.658;2023-07-29T07:26:20;7.75;;;4.55;;
42726;SDS011;28372;56.832;60.658;2023-07-29T07:28:48;6.60;;;4.43;;
42726;SDS011;28372;56.832;60.658;2023-07-29T07:31:16;6.65;;;4.93;;
42726;SDS011;28372;56.832;60.658;2023-07-29T07:33:46;7.07;;;4.80;;
42726;SDS011;28372;56.832;60.658;2023-07-29T07:36:14;8.27;;;4.90;;
42726;SDS011;28372;56.832;60.658;2023-07-29T07:38:42;6.63;;;4.57;;
42726;SDS011;28372;56.832;60.658;2023-07-29T07:41:10;8.30;;;5.22;;
42726;SDS011;28372;56.832;60.658;2023-07-29T07:43:38;7.72;;;4.97;;
42726;SDS011;28372;56.832;60.658;2023-07-29T07:46:06;7.72;;;4.90;;
42726;SDS011;28372;56.832;60.658;2023-07-29T07:48:34;6.88;;;4.95;;
42726;SDS011;28372;56.832;60.658;2023-07-29T07:51:09;6.45;;;4.85;;
42726;SDS011;28372;56.832;60.658;2023-07-29T07:53:38;7.38;;;4.82;;
42726;SDS011;28372;56.832;60.658;2023-07-29T07:56:06;6.53;;;5.20;;
42726;SDS011;28372;56.832;60.658;2023-07-29T07:58:34;6.43;;;5.05;;
42726;SDS011;28372;56.832;60.658;2023-07-29T08:01:03;7.82;;;5.22;;
42726;SDS011;28372;56.832;60.658;2023-07-29T08:03:31;8.00;;;5.30;;
42726;SDS011;28372;56.832;60.658;2023-07-29T08:05:59;7.57;;;5.20;;
42726;SDS011;28372;56.832;60.658;2023-07-29T08:08:28;10.43;;;5.40;;
42726;SDS011;28372;56.832;60.658;2023-07-29T08:10:58;7.95;;;5.20;;
42726;SDS011;28372;56.832;60.658;2023-07-29T08:13:26;7.93;;;5.30;;
42726;SDS011;28372;56.832;60.658;2023-07-29T08:15:54;8.10;;;5.20;;
42726;SDS011;28372;56.832;60.658;2023-07-29T08:18:22;8.55;;;5.32;;
42726;SDS011;28372;56.832;60.658;2023-07-29T08:20:57;8.60;;;5.47;;
42726;SDS011;28372;56.832;60.658;2023-07-29T08:23:26;6.78;;;4.75;;
42726;SDS011;28372;56.832;60.658;2023-07-29T08:25:54;7.20;;;4.32;;
42726;SDS011;28372;56.832;60.658;2023-07-29T08:28:30;8.68;;;5.03;;
42726;SDS011;28372;56.832;60.658;2023-07-29T08:31:02;8.25;;;4.72;;
42726;SDS011;28372;56.832;60.658;2023-07-29T08:33:30;7.20;;;5.10;;
42726;SDS011;28372;56.832;60.658;2023-07-29T08:36:00;5.85;;;4.43;;
42726;SDS011;28372;56.832;60.658;2023-07-29T08:38:29;7.40;;;4.82;;
42726;SDS011;28372;56.832;60.658;2023-07-29T08:40:59;7.57;;;5.20;;
42726;SDS011;28372;56.832;60.658;2023-07-29T08:46:39;9.05;;;5.70;;
42726;SDS011;28372;56.832;60.658;2023-07-29T08:49:08;7.18;;;5.40;;
42726;SDS011;28372;56.832;60.658;2023-07-29T08:51:36;8.27;;;5.50;;
42726;SDS011;28372;56.832;60.658;2023-07-29T08:54:06;8.40;;;5.30;;
42726;SDS011;28372;56.832;60.658;2023-07-29T08:56:34;8.85;;;6.90;;
42726;SDS011;28372;56.832;60.658;2023-07-29T08:59:02;6.75;;;4.70;;
42726;SDS011;28372;56.832;60.658;2023-07-29T09:01:32;6.05;;;4.60;;
42726;SDS011;28372;56.832;60.658;2023-07-29T09:04:00;5.80;;;4.20;;
42726;SDS011;28372;56.832;60.658;2023-07-29T09:06:30;5.97;;;4.05;;
42726;SDS011;28372;56.832;60.658;2023-07-29T09:08:58;5.22;;;4.03;;
42726;SDS011;28372;56.832;60.658;2023-07-29T09:11:27;6.45;;;4.40;;
42726;SDS011;28372;56.832;60.658;2023-07-29T09:13:56;6.43;;;4.45;;
42726;SDS011;28372;56.832;60.658;2023-07-29T09:16:24;5.90;;;4.07;;
42726;SDS011;28372;56.832;60.658;2023-07-29T09:18:52;5.80;;;4.20;;
42726;SDS011;28372;56.832;60.658;2023-07-29T09:21:23;5.55;;;3.83;;
42726;SDS011;28372;56.832;60.658;2023-07-29T09:23:52;5.53;;;3.90;;
42726;SDS011;28372;56.832;60.658;2023-07-29T09:26:25;9.77;;;6.60;;
42726;SDS011;28372;56.832;60.658;2023-07-29T09:28:55;7.03;;;4.03;;
42726;SDS011;28372;56.832;60.658;2023-07-29T09:31:25;5.18;;;3.67;;
42726;SDS011;28372;56.832;60.658;2023-07-29T09:33:58;5.95;;;4.30;;
42726;SDS011;28372;56.832;60.658;2023-07-29T09:36:29;6.80;;;4.28;;
42726;SDS011;28372;56.832;60.658;2023-07-29T09:38:58;6.63;;;3.90;;
42726;SDS011;28372;56.832;60.658;2023-07-29T09:41:27;7.28;;;4.20;;
42726;SDS011;28372;56.832;60.658;2023-07-29T09:43:59;8.15;;;4.07;;
42726;SDS011;28372;56.832;60.658;2023-07-29T09:46:33;5.65;;;4.07;;
42726;SDS011;28372;56.832;60.658;2023-07-29T09:49:04;5.97;;;3.63;;
42726;SDS011;28372;56.832;60.658;2023-07-29T09:51:39;4.10;;;3.40;;
42726;SDS011;28372;56.832;60.658;2023-07-29T09:54:07;5.43;;;3.60;;
42726;SDS011;28372;56.832;60.658;2023-07-29T09:56:41;5.90;;;3.50;;
42726;SDS011;28372;56.832;60.658;2023-07-29T09:59:12;4.40;;;3.50;;
42726;SDS011;28372;56.832;60.658;2023-07-29T10:01:40;4.93;;;3.30;;
42726;SDS011;28372;56.832;60.658;2023-07-29T10:04:08;4.97;;;3.00;;
42726;SDS011;28372;56.832;60.658;2023-07-29T10:06:39;6.78;;;3.40;;
42726;SDS011;28372;56.832;60.658;2023-07-29T10:09:08;4.13;;;3.10;;
42726;SDS011;28372;56.832;60.658;2023-07-29T10:11:40;3.53;;;3.20;;
42726;SDS011;28372;56.832;60.658;2023-07-29T10:14:09;5.93;;;3.45;;
42726;SDS011;28372;56.832;60.658;2023-07-29T10:16:37;4.45;;;3.40;;
42726;SDS011;28372;56.832;60.658;2023-07-29T10:19:07;5.97;;;3.63;;
42726;SDS011;28372;56.832;60.658;2023-07-29T10:21:38;4.72;;;3.25;;
42726;SDS011;28372;56.832;60.658;2023-07-29T10:24:09;7.25;;;4.05;;
42726;SDS011;28372;56.832;60.658;2023-07-29T10:26:42;6.20;;;3.40;;
42726;SDS011;28372;56.832;60.658;2023-07-29T10:29:14;5.35;;;3.45;;
42726;SDS011;28372;56.832;60.658;2023-07-29T10:31:48;11.32;;;6.43;;
42726;SDS011;28372;56.832;60.658;2023-07-29T10:34:20;4.93;;;3.42;;
42726;SDS011;28372;56.832;60.658;2023-07-29T10:36:50;4.68;;;3.30;;
42726;SDS011;28372;56.832;60.658;2023-07-29T10:39:20;5.32;;;3.53;;
42726;SDS011;28372;56.832;60.658;2023-07-29T10:41:58;4.30;;;3.40;;
42726;SDS011;28372;56.832;60.658;2023-07-29T10:47:14;7.38;;;3.58;;
42726;SDS011;28372;56.832;60.658;2023-07-29T10:49:43;6.07;;;3.53;;
42726;SDS011;28372;56.832;60.658;2023-07-29T10:52:13;5.03;;;3.30;;
42726;SDS011;28372;56.832;60.658;2023-07-29T10:54:54;4.07;;;3.42;;
42726;SDS011;28372;56.832;60.658;2023-07-29T10:57:32;5.70;;;3.58;;
42726;SDS011;28372;56.832;60.658;2023-07-29T11:00:08;3.97;;;3.35;;
42726;SDS011;28372;56.832;60.658;2023-07-29T11:02:37;4.13;;;3.25;;
42726;SDS011;28372;56.832;60.658;2023-07-29T11:05:06;5.18;;;3.95;;
42726;SDS011;28372;56.832;60.658;2023-07-29T11:07:44;5.43;;;3.60;;
42726;SDS011;28372;56.832;60.658;2023-07-29T11:10:13;8.13;;;4.05;;
42726;SDS011;28372;56.832;60.658;2023-07-29T11:17:47;4.22;;;3.50;;
42726;SDS011;28372;56.832;60.658;2023-07-29T11:20:19;4.40;;;3.60;;
42726;SDS011;28372;56.832;60.658;2023-07-29T11:22:49;4.78;;;3.30;;
42726;SDS011;28372;56.832;60.658;2023-07-29T11:25:18;5.57;;;3.60;;
42726;SDS011;28372;56.832;60.658;2023-07-29T11:27:46;4.95;;;3.40;;
42726;SDS011;28372;56.832;60.658;2023-07-29T11:30:14;4.85;;;3.70;;
42726;SDS011;28372;56.832;60.658;2023-07-29T11:32:44;4.63;;;3.60;;
42726;SDS011;28372;56.832;60.658;2023-07-29T11:35:13;5.45;;;4.47;;
42726;SDS011;28372;56.832;60.658;2023-07-29T11:37:45;4.65;;;3.53;;
42726;SDS011;28372;56.832;60.658;2023-07-29T11:40:18;6.57;;;3.70;;
42726;SDS011;28372;56.832;60.658;2023-07-29T11:42:49;4.55;;;3.65;;
42726;SDS011;28372;56.832;60.658;2023-07-29T11:45:18;8.35;;;4.13;;
42726;SDS011;28372;56.832;60.658;2023-07-29T11:47:47;6.55;;;3.80;;
42726;SDS011;28372;56.832;60.658;2023-07-29T11:50:15;7.95;;;5.38;;
42726;SDS011;28372;56.832;60.658;2023-07-29T11:52:45;6.80;;;4.10;;
42726;SDS011;28372;56.832;60.658;2023-07-29T11:55:19;5.63;;;4.47;;
42726;SDS011;28372;56.832;60.658;2023-07-29T11:57:48;4.65;;;3.92;;
42726;SDS011;28372;56.832;60.658;2023-07-29T12:00:19;6.60;;;4.40;;
42726;SDS011;28372;56.832;60.658;2023-07-29T12:02:48;6.88;;;4.40;;
42726;SDS011;28372;56.832;60.658;2023-07-29T12:05:17;4.80;;;3.58;;
42726;SDS011;28372;56.832;60.658;2023-07-29T12:07:46;5.78;;;4.18;;
42726;SDS011;28372;56.832;60.658;2023-07-29T12:10:14;5.22;;;4.10;;
42726;SDS011;28372;56.832;60.658;2023-07-29T12:12:46;5.22;;;3.90;;
42726;SDS011;28372;56.832;60.658;2023-07-29T12:17:53;5.53;;;4.10;;
42726;SDS011;28372;56.832;60.658;2023-07-29T12:20:24;5.90;;;4.10;;
42726;SDS011;28372;56.832;60.658;2023-07-29T12:22:57;5.30;;;4.05;;
42726;SDS011;28372;56.832;60.658;2023-07-29T12:25:26;5.50;;;3.92;;
42726;SDS011;28372;56.832;60.658;2023-07-29T12:27:55;5.53;;;4.00;;
42726;SDS011;28372;56.832;60.658;2023-07-29T12:30:23;4.93;;;4.00;;
42726;SDS011;28372;56.832;60.658;2023-07-29T12:32:52;5.38;;;4.18;;
42726;SDS011;28372;56.832;60.658;2023-07-29T12:35:20;7.13;;;4.15;;
42726;SDS011;28372;56.832;60.658;2023-07-29T12:37:57;5.95;;;4.80;;
42726;SDS011;28372;56.832;60.658;2023-07-29T12:40:25;6.72;;;4.50;;
42726;SDS011;28372;56.832;60.658;2023-07-29T12:42:54;7.60;;;3.97;;
42726;SDS011;28372;56.832;60.658;2023-07-29T12:45:22;5.88;;;4.50;;
42726;SDS011;28372;56.832;60.658;2023-07-29T12:47:54;6.25;;;4.50;;
42726;SDS011;28372;56.832;60.658;2023-07-29T12:50:21;6.50;;;4.78;;
42726;SDS011;28372;56.832;60.658;2023-07-29T12:52:49;6.45;;;4.95;;
42726;SDS011;28372;56.832;60.658;2023-07-29T12:55:17;5.50;;;4.82;;
42726;SDS011;28372;56.832;60.658;2023-07-29T12:57:49;6.78;;;4.55;;
42726;SDS011;28372;56.832;60.658;2023-07-29T13:00:18;6.88;;;4.57;;
42726;SDS011;28372;56.832;60.658;2023-07-29T13:02:46;6.45;;;4.63;;
42726;SDS011;28372;56.832;60.658;2023-07-29T13:05:14;5.35;;;4.32;;
42726;SDS011;28372;56.832;60.658;2023-07-29T13:07:42;5.55;;;4.38;;
42726;SDS011;28372;56.832;60.658;2023-07-29T13:10:10;4.85;;;4.07;;
42726;SDS011;28372;56.832;60.658;2023-07-29T13:12:38;6.85;;;4.35;;
42726;SDS011;28372;56.832;60.658;2023-07-29T13:15:07;5.00;;;4.28;;
42726;SDS011;28372;56.832;60.658;2023-07-29T13:17:35;6.93;;;4.90;;
42726;SDS011;28372;56.832;60.658;2023-07-29T13:20:05;5.30;;;4.18;;
42726;SDS011;28372;56.832;60.658;2023-07-29T13:22:33;6.75;;;4.55;;
42726;SDS011;28372;56.832;60.658;2023-07-29T13:25:01;8.45;;;5.15;;
42726;SDS011;28372;56.832;60.658;2023-07-29T13:27:29;5.35;;;4.30;;
42726;SDS011;28372;56.832;60.658;2023-07-29T13:29:57;6.80;;;4.20;;
42726;SDS011;28372;56.832;60.658;2023-07-29T13:32:24;6.55;;;4.30;;
42726;SDS011;28372;56.832;60.658;2023-07-29T13:34:52;6.22;;;4.10;;
42726;SDS011;28372;56.832;60.658;2023-07-29T13:37:20;6.03;;;4.15;;
42726;SDS011;28372;56.832;60.658;2023-07-29T13:39:48;5.10;;;3.97;;
42726;SDS011;28372;56.832;60.658;2023-07-29T13:42:15;5.18;;;3.83;;
42726;SDS011;28372;56.832;60.658;2023-07-29T13:44:43;5.38;;;4.57;;
42726;SDS011;28372;56.832;60.658;2023-07-29T13:47:11;5.00;;;4.25;;
42726;SDS011;28372;56.832;60.658;2023-07-29T13:49:38;6.57;;;4.00;;
42726;SDS011;28372;56.832;60.658;2023-07-29T13:52:06;7.07;;;4.68;;
42726;SDS011;28372;56.832;60.658;2023-07-29T13:54:34;6.65;;;5.38;;
42726;SDS011;28372;56.832;60.658;2023-07-29T13:57:02;7.82;;;4.72;;
42726;SDS011;28372;56.832;60.658;2023-07-29T13:59:30;6.50;;;4.78;;
42726;SDS011;28372;56.832;60.658;2023-07-29T14:01:57;6.43;;;4.47;;
42726;SDS011;28372;56.832;60.658;2023-07-29T14:04:25;8.80;;;5.15;;
42726;SDS011;28372;56.832;60.658;2023-07-29T14:06:53;7.93;;;5.25;;
42726;SDS011;28372;56.832;60.658;2023-07-29T14:09:25;6.47;;;5.05;;
42726;SDS011;28372;56.832;60.658;2023-07-29T14:11:54;6.90;;;6.18;;
42726;SDS011;28372;56.832;60.658;2023-07-29T14:14:22;7.43;;;5.72;;
42726;SDS011;28372;56.832;60.658;2023-07-29T14:16:50;6.63;;;4.93;;
42726;SDS011;28372;56.832;60.658;2023-07-29T14:19:17;7.82;;;5.00;;
42726;SDS011;28372;56.832;60.658;2023-07-29T14:21:45;6.20;;;5.07;;
42726;SDS011;28372;56.832;60.658;2023-07-29T14:24:13;6.80;;;4.90;;
42726;SDS011;28372;56.832;60.658;2023-07-29T14:26:41;6.32;;;4.60;;
42726;SDS011;28372;56.832;60.658;2023-07-29T14:29:09;6.07;;;4.80;;
42726;SDS011;28372;56.832;60.658;2023-07-29T14:31:37;6.43;;;4.95;;
42726;SDS011;28372;56.832;60.658;2023-07-29T14:34:04;5.88;;;4.90;;
42726;SDS011;28372;56.832;60.658;2023-07-29T14:36:32;7.97;;;5.13;;
42726;SDS011;28372;56.832;60.658;2023-07-29T14:39:00;7.07;;;5.43;;
42726;SDS011;28372;56.832;60.658;2023-07-29T14:41:29;7.30;;;5.65;;
42726;SDS011;28372;56.832;60.658;2023-07-29T14:43:58;7.07;;;4.97;;
42726;SDS011;28372;56.832;60.658;2023-07-29T14:46:25;7.05;;;5.10;;
42726;SDS011;28372;56.832;60.658;2023-07-29T14:48:53;8.95;;;5.18;;
42726;SDS011;28372;56.832;60.658;2023-07-29T14:51:21;7.25;;;5.15;;
42726;SDS011;28372;56.832;60.658;2023-07-29T14:53:49;6.68;;;4.80;;
42726;SDS011;28372;56.832;60.658;2023-07-29T14:56:17;7.18;;;4.90;;
42726;SDS011;28372;56.832;60.658;2023-07-29T14:58:47;7.30;;;5.28;;
42726;SDS011;28372;56.832;60.658;2023-07-29T15:01:16;8.02;;;5.15;;
42726;SDS011;28372;56.832;60.658;2023-07-29T15:03:44;9.82;;;5.78;;
42726;SDS011;28372;56.832;60.658;2023-07-29T15:06:13;7.40;;;5.15;;
42726;SDS011;28372;56.832;60.658;2023-07-29T15:08:40;8.00;;;5.57;;
42726;SDS011;28372;56.832;60.658;2023-07-29T15:11:08;7.03;;;5.20;;
42726;SDS011;28372;56.832;60.658;2023-07-29T15:13:36;6.90;;;4.60;;
42726;SDS011;28372;56.832;60.658;2023-07-29T15:16:04;7.65;;;5.20;;